createdAt,value
2019-05-23T00:00:51.796Z,12.62
2019-05-23T00:01:51.789Z,12.62
2019-05-23T00:02:51.791Z,12.62
2019-05-23T00:03:51.780Z,12.60
2019-05-23T00:04:51.777Z,12.67
2019-05-23T00:05:51.779Z,12.62
2019-05-23T00:06:51.768Z,12.58
2019-05-23T00:07:51.761Z,12.76
2019-05-23T00:08:51.756Z,12.62
2019-05-23T00:09:51.749Z,12.64
2019-05-23T00:10:51.745Z,12.64
2019-05-23T00:11:51.742Z,12.61
2019-05-23T00:12:51.740Z,12.64
2019-05-23T00:13:51.734Z,12.62
2019-05-23T00:14:51.735Z,12.67
2019-05-23T00:15:51.722Z,12.65
2019-05-23T00:16:51.715Z,12.58
2019-05-23T00:17:51.709Z,12.67
2019-05-23T00:18:51.708Z,12.61
2019-05-23T00:19:51.702Z,12.60
2019-05-23T00:20:51.698Z,12.68
2019-05-23T00:21:51.696Z,12.60
2019-05-23T00:22:51.690Z,12.65
2019-05-23T00:23:51.685Z,12.64
2019-05-23T00:24:51.679Z,12.65
2019-05-23T00:25:51.675Z,12.65
2019-05-23T00:26:51.667Z,12.62
2019-05-23T00:27:51.679Z,12.65
2019-05-23T00:28:51.710Z,12.61
2019-05-23T00:29:51.651Z,12.60
2019-05-23T00:30:51.648Z,12.55
2019-05-23T00:31:51.643Z,12.50
2019-05-23T00:32:51.639Z,12.50
2019-05-23T00:33:51.662Z,12.54
2019-05-23T00:34:51.628Z,12.57
2019-05-23T00:35:51.625Z,12.62
2019-05-23T00:36:51.625Z,12.58
2019-05-23T00:37:51.614Z,12.60
2019-05-23T00:38:51.609Z,12.55
2019-05-23T00:39:51.607Z,12.50
2019-05-23T00:40:51.597Z,12.55
2019-05-23T00:41:51.595Z,12.54
2019-05-23T00:42:51.590Z,12.55
2019-05-23T00:43:51.633Z,12.54
2019-05-23T00:44:51.580Z,12.53
2019-05-23T00:45:51.572Z,12.53
2019-05-23T00:46:51.571Z,12.50
2019-05-23T00:47:51.566Z,12.43
2019-05-23T00:48:51.557Z,12.54
2019-05-23T00:49:51.551Z,12.37
2019-05-23T00:50:51.548Z,12.37
2019-05-23T00:51:51.545Z,12.43
2019-05-23T00:52:51.539Z,12.43
2019-05-23T00:53:51.532Z,12.40
2019-05-23T00:54:51.527Z,12.42
2019-05-23T00:55:51.525Z,12.43
2019-05-23T00:56:51.517Z,12.42
2019-05-23T00:57:51.512Z,12.40
2019-05-23T00:58:51.507Z,12.36
2019-05-23T00:59:51.502Z,12.39
2019-05-23T01:00:51.626Z,12.36
2019-05-23T01:01:51.502Z,12.32
2019-05-23T01:02:51.488Z,12.35
2019-05-23T01:03:51.482Z,12.36
2019-05-23T01:04:51.482Z,12.28
2019-05-23T01:05:51.474Z,12.32
2019-05-23T01:06:51.480Z,12.32
2019-05-23T01:07:51.460Z,12.28
2019-05-23T01:08:51.459Z,12.22
2019-05-23T01:09:51.452Z,12.27
2019-05-23T01:10:51.449Z,12.20
2019-05-23T01:11:51.441Z,12.20
2019-05-23T01:12:51.442Z,12.17
2019-05-23T01:13:51.434Z,12.24
2019-05-23T01:14:51.430Z,12.21
2019-05-23T01:15:51.420Z,12.20
2019-05-23T01:16:51.418Z,12.17
2019-05-23T01:17:51.410Z,12.13
2019-05-23T01:18:51.414Z,12.10
2019-05-23T01:19:51.401Z,12.18
2019-05-23T01:20:51.396Z,12.09
2019-05-23T01:21:51.389Z,12.09
2019-05-23T01:22:51.387Z,12.13
2019-05-23T01:23:51.379Z,12.09
2019-05-23T01:24:51.376Z,12.09
2019-05-23T01:25:51.371Z,12.10
2019-05-23T01:26:51.712Z,11.97
2019-05-23T01:27:51.470Z,12.13
2019-05-23T01:28:51.357Z,12.03
2019-05-23T01:29:51.349Z,12.02
2019-05-23T01:30:51.346Z,11.99
2019-05-23T01:31:51.403Z,11.97
2019-05-23T01:32:51.335Z,11.99
2019-05-23T01:33:51.327Z,11.86
2019-05-23T01:34:51.325Z,11.88
2019-05-23T01:35:51.328Z,11.87
2019-05-23T01:36:51.313Z,11.83
2019-05-23T01:37:51.306Z,11.84
2019-05-23T01:38:51.302Z,11.81
2019-05-23T01:39:51.296Z,11.73
2019-05-23T01:40:51.292Z,11.81
2019-05-23T01:41:51.318Z,11.70
2019-05-23T01:42:51.282Z,11.73
2019-05-23T01:43:51.281Z,11.75
2019-05-23T01:44:51.270Z,11.65
2019-05-23T01:45:51.265Z,11.68
2019-05-23T01:46:51.258Z,11.72
2019-05-23T01:47:51.255Z,11.69
2019-05-23T01:48:51.250Z,11.59
2019-05-23T01:49:51.244Z,11.52
2019-05-23T01:50:51.267Z,11.52
2019-05-23T01:51:51.232Z,11.54
2019-05-23T01:52:51.227Z,11.51
2019-05-23T01:53:51.222Z,11.52
2019-05-23T01:54:51.217Z,11.44
2019-05-23T01:55:51.210Z,11.44
2019-05-23T01:56:51.209Z,11.45
2019-05-23T01:57:51.200Z,11.45
2019-05-23T01:58:51.199Z,11.48
2019-05-23T02:00:06.097Z,11.48
2019-05-23T02:00:51.183Z,11.37
2019-05-23T02:01:51.178Z,11.29
2019-05-23T02:02:51.174Z,11.44
2019-05-23T02:03:51.186Z,11.40
2019-05-23T02:04:51.166Z,11.40
2019-05-23T02:05:51.159Z,11.33
2019-05-23T02:06:51.161Z,11.36
2019-05-23T02:07:51.147Z,11.41
2019-05-23T02:08:51.147Z,11.27
2019-05-23T02:09:51.137Z,11.27
2019-05-23T02:10:51.127Z,11.25
2019-05-23T02:11:51.124Z,11.22
2019-05-23T02:12:51.116Z,11.25
2019-05-23T02:13:51.112Z,11.22
2019-05-23T02:14:51.108Z,11.22
2019-05-23T02:15:51.102Z,11.18
2019-05-23T02:16:51.097Z,11.23
2019-05-23T02:17:51.161Z,11.23
2019-05-23T02:18:51.087Z,11.14
2019-05-23T02:19:51.078Z,11.18
2019-05-23T02:20:51.073Z,11.15
2019-05-23T02:21:51.067Z,11.10
2019-05-23T02:22:51.062Z,11.07
2019-05-23T02:23:51.057Z,11.15
2019-05-23T02:24:51.053Z,11.14
2019-05-23T02:25:51.045Z,11.10
2019-05-23T02:26:51.040Z,11.15
2019-05-23T02:27:51.036Z,11.15
2019-05-23T02:28:51.028Z,11.17
2019-05-23T02:29:51.033Z,11.11
2019-05-23T02:30:51.019Z,11.12
2019-05-23T02:31:51.016Z,11.12
2019-05-23T02:32:51.019Z,11.12
2019-05-23T02:33:51.001Z,11.11
2019-05-23T02:34:50.995Z,11.15
2019-05-23T02:35:51.006Z,11.05
2019-05-23T02:36:50.985Z,11.04
2019-05-23T02:37:50.981Z,11.02
2019-05-23T02:38:50.974Z,11.08
2019-05-23T02:39:50.968Z,11.05
2019-05-23T02:40:50.962Z,11.02
2019-05-23T02:41:50.955Z,11.02
2019-05-23T02:42:50.949Z,11.04
2019-05-23T02:43:50.945Z,11.08
2019-05-23T02:44:50.932Z,11.02
2019-05-23T02:45:50.932Z,10.97
2019-05-23T02:46:50.938Z,11.05
2019-05-23T02:47:50.928Z,11.00
2019-05-23T02:48:50.916Z,11.04
2019-05-23T02:49:50.908Z,10.92
2019-05-23T02:50:50.907Z,10.99
2019-05-23T02:51:50.901Z,10.93
2019-05-23T02:52:50.907Z,10.90
2019-05-23T02:53:50.886Z,10.92
2019-05-23T02:54:50.881Z,10.89
2019-05-23T02:55:50.875Z,10.94
2019-05-23T02:56:50.871Z,10.90
2019-05-23T02:57:50.861Z,10.84
2019-05-23T02:58:50.857Z,10.86
2019-05-23T02:59:50.850Z,10.90
2019-05-23T03:00:54.882Z,10.81
2019-05-23T03:01:50.839Z,10.81
2019-05-23T03:02:50.866Z,10.76
2019-05-23T03:03:50.830Z,10.72
2019-05-23T03:04:50.824Z,10.72
2019-05-23T03:05:50.815Z,10.75
2019-05-23T03:06:50.811Z,10.72
2019-05-23T03:07:50.823Z,10.72
2019-05-23T03:08:50.800Z,10.61
2019-05-23T03:09:50.793Z,10.64
2019-05-23T03:10:50.792Z,10.60
2019-05-23T03:11:50.783Z,10.56
2019-05-23T03:12:50.792Z,10.59
2019-05-23T03:13:50.773Z,10.59
2019-05-23T03:14:50.763Z,10.51
2019-05-23T03:15:50.759Z,10.51
2019-05-23T03:16:50.751Z,10.46
2019-05-23T03:17:50.745Z,10.48
2019-05-23T03:18:50.745Z,10.44
2019-05-23T03:19:50.732Z,10.44
2019-05-23T03:20:50.728Z,10.38
2019-05-23T03:21:50.720Z,10.31
2019-05-23T03:22:50.715Z,10.37
2019-05-23T03:23:50.712Z,10.30
2019-05-23T03:24:50.704Z,10.25
2019-05-23T03:25:50.697Z,10.31
2019-05-23T03:26:50.690Z,10.28
2019-05-23T03:27:50.686Z,10.30
2019-05-23T03:28:50.735Z,10.25
2019-05-23T03:29:50.671Z,10.15
2019-05-23T03:30:50.668Z,10.17
2019-05-23T03:31:50.663Z,10.19
2019-05-23T03:32:50.656Z,10.28
2019-05-23T03:33:50.653Z,10.20
2019-05-23T03:34:50.643Z,10.19
2019-05-23T03:35:50.637Z,10.13
2019-05-23T03:36:50.640Z,10.16
2019-05-23T03:37:50.628Z,10.20
2019-05-23T03:38:50.631Z,10.19
2019-05-23T03:39:50.613Z,10.16
2019-05-23T03:40:50.610Z,10.04
2019-05-23T03:41:50.606Z,10.01
2019-05-23T03:42:50.596Z,10.12
2019-05-23T03:43:50.609Z,10.10
2019-05-23T03:44:50.579Z,10.01
2019-05-23T03:45:50.583Z,9.92
2019-05-23T03:46:50.570Z,9.98
2019-05-23T03:47:50.565Z,10.01
2019-05-23T03:48:50.560Z,9.99
2019-05-23T03:49:50.552Z,9.94
2019-05-23T03:50:50.546Z,10.02
2019-05-23T03:51:50.545Z,9.98
2019-05-23T03:52:50.534Z,9.99
2019-05-23T03:53:50.527Z,9.95
2019-05-23T03:54:50.526Z,9.94
2019-05-23T03:55:50.516Z,9.97
2019-05-23T03:56:50.515Z,9.95
2019-05-23T03:57:50.506Z,9.92
2019-05-23T03:58:50.500Z,9.95
2019-05-23T03:59:50.492Z,9.84
2019-05-23T04:00:50.486Z,9.87
2019-05-23T04:01:50.477Z,9.79
2019-05-23T04:02:50.471Z,9.83
2019-05-23T04:03:50.467Z,9.77
2019-05-23T04:04:50.461Z,9.77
2019-05-23T04:05:50.455Z,9.84
2019-05-23T04:06:50.454Z,9.84
2019-05-23T04:07:50.445Z,9.79
2019-05-23T04:08:50.446Z,9.83
2019-05-23T04:09:50.437Z,9.80
2019-05-23T04:10:51.812Z,9.82
2019-05-23T04:11:50.419Z,9.86
2019-05-23T04:12:50.421Z,9.82
2019-05-23T04:13:50.535Z,9.77
2019-05-23T04:14:50.405Z,9.82
2019-05-23T04:15:50.396Z,9.77
2019-05-23T04:16:50.395Z,9.84
2019-05-23T04:17:50.381Z,9.91
2019-05-23T04:18:50.377Z,9.86
2019-05-23T04:19:50.370Z,9.87
2019-05-23T04:20:50.364Z,9.97
2019-05-23T04:21:50.358Z,10.04
2019-05-23T04:22:50.353Z,10.74
2019-05-23T04:23:50.347Z,11.60
2019-05-23T04:24:50.357Z,12.27
2019-05-23T04:25:50.333Z,12.60
2019-05-23T04:26:50.336Z,13.05
2019-05-23T04:27:50.323Z,13.09
2019-05-23T04:28:50.321Z,12.72
2019-05-23T04:29:50.312Z,12.65
2019-05-23T04:30:50.314Z,13.31
2019-05-23T04:32:06.170Z,14.15
2019-05-23T04:32:50.303Z,14.70
2019-05-23T04:33:50.289Z,15.28
2019-05-23T04:34:50.281Z,15.70
2019-05-23T04:35:50.277Z,15.94
2019-05-23T04:36:50.272Z,16.08
2019-05-23T04:37:50.267Z,16.09
2019-05-23T04:38:50.260Z,16.26
2019-05-23T04:39:50.255Z,16.42
2019-05-23T04:40:50.253Z,16.60
2019-05-23T04:41:50.249Z,16.84
2019-05-23T04:42:50.239Z,17.14
2019-05-23T04:43:50.238Z,17.11
2019-05-23T04:44:50.231Z,17.08
2019-05-23T04:45:50.226Z,17.15
2019-05-23T04:46:50.223Z,17.23
2019-05-23T04:47:50.216Z,17.51
2019-05-23T04:48:50.215Z,17.65
2019-05-23T04:49:50.210Z,17.70
2019-05-23T04:50:50.205Z,17.98
2019-05-23T04:51:50.200Z,17.65
2019-05-23T04:52:50.196Z,17.64
2019-05-23T04:53:50.191Z,18.08
2019-05-23T04:54:50.185Z,18.05
2019-05-23T04:55:50.189Z,17.87
2019-05-23T04:56:50.180Z,18.03
2019-05-23T04:57:50.176Z,17.85
2019-05-23T04:58:50.172Z,18.04
2019-05-23T04:59:50.168Z,17.95
2019-05-23T05:00:50.164Z,18.45
2019-05-23T05:01:50.170Z,18.88
2019-05-23T05:02:50.162Z,19.22
2019-05-23T05:03:50.160Z,18.83
2019-05-23T05:04:50.150Z,18.89
2019-05-23T05:05:50.153Z,18.98
2019-05-23T05:06:50.154Z,19.16
2019-05-23T05:07:50.145Z,19.34
2019-05-23T05:08:50.140Z,19.27
2019-05-23T05:09:50.134Z,19.37
2019-05-23T05:10:50.130Z,19.47
2019-05-23T05:11:50.125Z,19.19
2019-05-23T05:12:50.123Z,19.31
2019-05-23T05:13:50.127Z,19.82
2019-05-23T05:14:50.113Z,19.99
2019-05-23T05:15:50.124Z,20.00
2019-05-23T05:16:50.112Z,19.64
2019-05-23T05:17:50.107Z,20.10
2019-05-23T05:18:50.113Z,20.36
2019-05-23T05:19:50.105Z,20.78
2019-05-23T05:20:50.100Z,21.46
2019-05-23T05:21:50.098Z,21.92
2019-05-23T05:22:50.095Z,21.55
2019-05-23T05:23:50.094Z,21.33
2019-05-23T05:24:50.093Z,21.30
2019-05-23T05:25:50.116Z,21.22
2019-05-23T05:26:50.087Z,20.84
2019-05-23T05:27:50.083Z,20.63
2019-05-23T05:28:50.082Z,20.52
2019-05-23T05:29:50.088Z,20.56
2019-05-23T05:30:50.080Z,20.00
2019-05-23T05:31:50.075Z,20.19
2019-05-23T05:32:50.073Z,20.50
2019-05-23T05:33:50.073Z,20.41
2019-05-23T05:34:50.075Z,20.07
2019-05-23T05:35:50.068Z,20.32
2019-05-23T05:36:50.070Z,20.52
2019-05-23T05:37:50.064Z,20.78
2019-05-23T05:38:50.064Z,21.39
2019-05-23T05:39:50.068Z,20.77
2019-05-23T05:40:50.059Z,20.66
2019-05-23T05:41:50.065Z,20.78
2019-05-23T05:42:50.057Z,20.75
2019-05-23T05:43:50.057Z,21.03
2019-05-23T05:44:50.054Z,20.66
2019-05-23T05:45:50.045Z,20.72
2019-05-23T05:46:50.055Z,20.66
2019-05-23T05:47:50.097Z,21.27
2019-05-23T05:48:50.049Z,21.40
2019-05-23T05:49:50.048Z,21.57
2019-05-23T05:50:50.046Z,21.99
2019-05-23T05:51:50.054Z,22.28
2019-05-23T05:52:50.042Z,22.06
2019-05-23T05:53:50.046Z,21.93
2019-05-23T05:54:50.040Z,21.77
2019-05-23T05:55:50.040Z,21.52
2019-05-23T05:56:50.039Z,21.17
2019-05-23T05:57:50.039Z,20.50
2019-05-23T05:58:50.038Z,20.32
2019-05-23T05:59:50.034Z,20.21
2019-05-23T06:00:50.053Z,20.82
2019-05-23T06:01:50.040Z,21.15
2019-05-23T06:03:03.530Z,21.32
2019-05-23T06:03:50.035Z,21.18
2019-05-23T06:04:50.035Z,21.62
2019-05-23T06:05:50.034Z,22.02
2019-05-23T06:06:50.342Z,22.11
2019-05-23T06:07:50.033Z,21.83
2019-05-23T06:08:50.035Z,21.99
2019-05-23T06:09:50.035Z,21.92
2019-05-23T06:10:50.030Z,22.33
2019-05-23T06:11:50.032Z,22.15
2019-05-23T06:12:50.033Z,21.91
2019-05-23T06:13:50.033Z,21.83
2019-05-23T06:14:50.063Z,21.25
2019-05-23T06:15:50.032Z,21.20
2019-05-23T06:16:50.035Z,21.75
2019-05-23T06:17:50.043Z,21.43
2019-05-23T06:18:50.032Z,21.40
2019-05-23T06:19:50.034Z,21.64
2019-05-23T06:20:50.034Z,21.48
2019-05-23T06:21:50.032Z,21.39
2019-05-23T06:22:50.034Z,21.69
2019-05-23T06:23:50.034Z,21.35
2019-05-23T06:24:53.768Z,21.37
2019-05-23T06:25:50.034Z,21.35
2019-05-23T06:26:50.035Z,21.11
2019-05-23T06:27:50.037Z,20.44
2019-05-23T06:28:50.037Z,20.78
2019-05-23T06:29:50.036Z,21.00
2019-05-23T06:30:50.035Z,21.00
2019-05-23T06:31:50.039Z,21.14
2019-05-23T06:32:50.041Z,21.48
2019-05-23T06:33:50.037Z,21.03
2019-05-23T06:34:50.043Z,21.22
2019-05-23T06:35:50.040Z,20.62
2019-05-23T06:36:50.043Z,20.69
2019-05-23T06:37:50.045Z,20.70
2019-05-23T06:38:50.040Z,20.28
2019-05-23T06:39:50.042Z,20.50
2019-05-23T06:40:50.041Z,20.47
2019-05-23T06:41:50.055Z,21.18
2019-05-23T06:42:51.061Z,21.45
2019-05-23T06:43:50.044Z,21.83
2019-05-23T06:44:50.044Z,21.25
2019-05-23T06:45:50.051Z,21.12
2019-05-23T06:46:50.046Z,20.67
2019-05-23T06:47:50.049Z,21.18
2019-05-23T06:48:50.049Z,21.54
2019-05-23T06:49:50.048Z,21.14
2019-05-23T06:50:50.049Z,20.51
2019-05-23T06:51:50.048Z,20.95
2019-05-23T06:52:50.048Z,21.21
2019-05-23T06:53:50.053Z,21.82
2019-05-23T06:54:50.049Z,21.67
2019-05-23T06:55:50.052Z,22.68
2019-05-23T06:56:50.058Z,22.81
2019-05-23T06:57:50.054Z,22.35
2019-05-23T06:58:50.056Z,22.30
2019-05-23T06:59:50.056Z,22.38
2019-05-23T07:00:50.088Z,22.20
2019-05-23T07:01:50.063Z,22.60
2019-05-23T07:02:50.056Z,22.85
2019-05-23T07:03:50.056Z,22.59
2019-05-23T07:04:50.057Z,22.60
2019-05-23T07:05:50.060Z,22.50
2019-05-23T07:06:50.062Z,22.06
2019-05-23T07:07:50.060Z,21.48
2019-05-23T07:08:50.059Z,22.26
2019-05-23T07:09:50.062Z,22.04
2019-05-23T07:10:50.062Z,22.33
2019-05-23T07:11:50.068Z,22.76
2019-05-23T07:12:50.069Z,22.66
2019-05-23T07:13:50.066Z,22.57
2019-05-23T07:14:50.122Z,22.36
2019-05-23T07:15:50.069Z,22.25
2019-05-23T07:16:50.436Z,22.76
2019-05-23T07:17:50.071Z,23.08
2019-05-23T07:18:50.076Z,23.18
2019-05-23T07:19:50.074Z,23.09
2019-05-23T07:20:50.078Z,23.12
2019-05-23T07:21:50.076Z,22.93
2019-05-23T07:22:50.078Z,22.87
2019-05-23T07:23:50.081Z,22.38
2019-05-23T07:24:58.368Z,21.99
2019-05-23T07:25:50.084Z,21.79
2019-05-23T07:26:50.112Z,22.23
2019-05-23T07:27:50.098Z,22.04
2019-05-23T07:28:50.089Z,22.50
2019-05-23T07:29:50.089Z,22.48
2019-05-23T07:30:50.090Z,22.69
2019-05-23T07:31:50.093Z,22.94
2019-05-23T07:32:50.096Z,22.94
2019-05-23T07:34:01.028Z,23.24
2019-05-23T07:34:50.099Z,23.68
2019-05-23T07:35:50.101Z,23.40
2019-05-23T07:36:50.106Z,22.90
2019-05-23T07:37:50.107Z,22.84
2019-05-23T07:38:50.108Z,22.69
2019-05-23T07:39:50.108Z,23.25
2019-05-23T07:40:50.118Z,23.51
2019-05-23T07:41:50.113Z,24.16
2019-05-23T07:42:50.114Z,24.35
2019-05-23T07:43:50.121Z,23.24
2019-05-23T07:44:50.122Z,22.96
2019-05-23T07:45:50.121Z,22.91
2019-05-23T07:46:50.126Z,22.93
2019-05-23T07:47:50.128Z,22.33
2019-05-23T07:48:50.127Z,22.43
2019-05-23T07:49:50.129Z,22.57
2019-05-23T07:50:50.134Z,22.85
2019-05-23T07:51:50.133Z,23.44
2019-05-23T07:52:50.153Z,23.77
2019-05-23T07:53:50.402Z,23.44
2019-05-23T07:54:50.143Z,21.75
2019-05-23T07:55:50.144Z,22.54
2019-05-23T07:56:50.150Z,22.59
2019-05-23T07:57:50.149Z,22.70
2019-05-23T07:58:50.152Z,22.11
2019-05-23T07:59:50.155Z,20.72
2019-05-23T08:00:50.156Z,20.63
2019-05-23T08:01:50.164Z,21.45
2019-05-23T08:02:50.171Z,21.60
2019-05-23T08:03:50.163Z,20.62
2019-05-23T08:04:50.166Z,21.67
2019-05-23T08:05:50.168Z,22.23
2019-05-23T08:06:50.167Z,23.02
2019-05-23T08:07:50.210Z,23.77
2019-05-23T08:08:50.173Z,24.69
2019-05-23T08:09:50.175Z,25.29
2019-05-23T08:10:50.182Z,24.57
2019-05-23T08:11:50.183Z,24.48
2019-05-23T08:12:50.183Z,24.35
2019-05-23T08:13:50.188Z,23.36
2019-05-23T08:14:50.189Z,23.58
2019-05-23T08:15:50.193Z,23.99
2019-05-23T08:16:50.200Z,22.91
2019-05-23T08:17:50.199Z,22.65
2019-05-23T08:18:50.202Z,23.59
2019-05-23T08:19:50.591Z,24.58
2019-05-23T08:20:50.212Z,24.86
2019-05-23T08:21:50.213Z,26.09
2019-05-23T08:22:50.215Z,25.98
2019-05-23T08:23:50.216Z,25.95
2019-05-23T08:24:51.242Z,25.59
2019-05-23T08:25:50.226Z,24.63
2019-05-23T08:26:50.230Z,25.83
2019-05-23T08:27:50.232Z,25.35
2019-05-23T08:29:12.345Z,26.31
2019-05-23T08:29:50.239Z,25.95
2019-05-23T08:30:50.244Z,25.48
2019-05-23T08:31:50.250Z,25.26
2019-05-23T08:32:50.253Z,24.58
2019-05-23T08:33:50.257Z,24.33
2019-05-23T08:34:50.267Z,24.05
2019-05-23T08:35:50.267Z,24.30
2019-05-23T08:36:50.284Z,25.29
2019-05-23T08:37:50.275Z,25.91
2019-05-23T08:38:50.284Z,26.45
2019-05-23T08:39:50.302Z,25.44
2019-05-23T08:40:50.306Z,25.85
2019-05-23T08:41:50.294Z,26.22
2019-05-23T08:42:50.300Z,25.99
2019-05-23T08:43:50.307Z,24.18
2019-05-23T08:44:50.314Z,23.48
2019-05-23T08:45:50.316Z,23.37
2019-05-23T08:46:50.321Z,23.77
2019-05-23T08:47:50.324Z,24.65
2019-05-23T08:48:50.330Z,25.58
2019-05-23T08:49:50.332Z,25.40
2019-05-23T08:50:51.563Z,25.84
2019-05-23T08:51:50.342Z,25.81
2019-05-23T08:52:50.348Z,25.87
2019-05-23T08:53:50.390Z,26.56
2019-05-23T08:54:50.357Z,24.86
2019-05-23T08:55:50.363Z,24.45
2019-05-23T08:56:50.372Z,23.39
2019-05-23T08:57:50.377Z,23.51
2019-05-23T08:58:50.372Z,23.36
2019-05-23T08:59:50.382Z,22.76
2019-05-23T09:00:50.384Z,22.73
2019-05-23T09:01:50.390Z,22.62
2019-05-23T09:02:50.390Z,22.72
2019-05-23T09:03:50.396Z,21.79
2019-05-23T09:05:03.759Z,21.69
2019-05-23T09:05:50.401Z,21.77
2019-05-23T09:06:50.407Z,21.93
2019-05-23T09:07:50.412Z,22.06
2019-05-23T09:08:50.411Z,20.87
2019-05-23T09:09:50.411Z,20.58
2019-05-23T09:10:50.417Z,20.50
2019-05-23T09:11:50.416Z,20.31
2019-05-23T09:12:50.421Z,20.22
2019-05-23T09:13:50.421Z,20.13
2019-05-23T09:14:50.422Z,19.91
2019-05-23T09:15:53.192Z,20.02
2019-05-23T09:16:50.430Z,20.07
2019-05-23T09:17:53.644Z,20.09
2019-05-23T09:18:50.430Z,20.13
2019-05-23T09:19:50.430Z,19.95
2019-05-23T09:20:50.435Z,19.73
2019-05-23T09:21:56.956Z,19.47
2019-05-23T09:22:50.436Z,19.39
2019-05-23T09:23:50.440Z,19.19
2019-05-23T09:24:50.435Z,19.02
2019-05-23T09:25:50.470Z,18.78
2019-05-23T09:26:50.456Z,18.70
2019-05-23T09:27:50.437Z,18.58
2019-05-23T09:28:50.453Z,18.59
2019-05-23T09:29:50.438Z,18.40
2019-05-23T09:30:50.442Z,18.33
2019-05-23T09:31:50.446Z,18.45
2019-05-23T09:32:50.442Z,18.58
2019-05-23T09:33:50.446Z,18.59
2019-05-23T09:34:50.440Z,18.70
2019-05-23T09:35:50.441Z,18.88
2019-05-23T09:36:50.443Z,18.98
2019-05-23T09:37:50.449Z,18.84
2019-05-23T09:38:50.510Z,19.08
2019-05-23T09:39:50.446Z,18.99
2019-05-23T09:40:50.446Z,18.84
2019-05-23T09:41:50.441Z,18.86
2019-05-23T09:42:50.470Z,18.98
2019-05-23T09:43:50.447Z,18.71
2019-05-23T09:44:50.443Z,18.73
2019-05-23T09:45:50.444Z,18.47
2019-05-23T09:46:50.444Z,18.55
2019-05-23T09:47:51.547Z,18.49
2019-05-23T09:48:50.444Z,18.47
2019-05-23T09:49:54.263Z,18.73
2019-05-23T09:50:50.489Z,18.81
2019-05-23T09:51:53.528Z,18.65
2019-05-23T09:52:50.440Z,18.60
2019-05-23T09:53:50.443Z,18.55
2019-05-23T09:54:50.471Z,18.63
2019-05-23T09:55:50.445Z,18.50
2019-05-23T09:56:50.445Z,18.56
2019-05-23T09:57:50.533Z,18.70
2019-05-23T09:58:50.443Z,18.65
2019-05-23T09:59:50.442Z,18.65
2019-05-23T10:00:50.443Z,18.56
2019-05-23T10:01:50.457Z,18.60
2019-05-23T10:02:50.442Z,18.43
2019-05-23T10:03:50.437Z,18.47
2019-05-23T10:04:50.445Z,18.44
2019-05-23T10:05:50.436Z,18.34
2019-05-23T10:06:50.439Z,18.23
2019-05-23T10:07:50.435Z,18.13
2019-05-23T10:08:50.434Z,18.04
2019-05-23T10:09:50.434Z,18.01
2019-05-23T10:10:50.431Z,17.95
2019-05-23T10:11:50.433Z,18.00
2019-05-23T10:12:50.432Z,17.98
2019-05-23T10:13:50.431Z,18.01
2019-05-23T10:14:50.433Z,18.29
2019-05-23T10:15:50.430Z,18.35
2019-05-23T10:16:50.442Z,18.58
2019-05-23T10:17:50.436Z,18.59
2019-05-23T10:18:50.427Z,18.59
2019-05-23T10:19:50.424Z,18.66
2019-05-23T10:20:50.425Z,18.58
2019-05-23T10:21:50.423Z,18.49
2019-05-23T10:22:50.423Z,18.58
2019-05-23T10:23:50.421Z,18.58
2019-05-23T10:24:50.428Z,18.50
2019-05-23T10:25:50.420Z,18.62
2019-05-23T10:26:50.418Z,18.73
2019-05-23T10:27:50.417Z,18.78
2019-05-23T10:28:50.418Z,18.78
2019-05-23T10:29:50.724Z,18.81
2019-05-23T10:30:50.416Z,18.66
2019-05-23T10:31:50.415Z,18.47
2019-05-23T10:32:50.418Z,18.45
2019-05-23T10:33:50.414Z,18.50
2019-05-23T10:34:50.423Z,18.52
2019-05-23T10:36:00.579Z,18.55
2019-05-23T10:36:50.418Z,18.53
2019-05-23T10:37:50.413Z,18.59
2019-05-23T10:38:50.411Z,18.66
2019-05-23T10:39:50.413Z,18.68
2019-05-23T10:40:50.410Z,18.68
2019-05-23T10:41:50.407Z,18.58
2019-05-23T10:42:50.407Z,18.56
2019-05-23T10:43:50.428Z,18.53
2019-05-23T10:44:50.409Z,18.56
2019-05-23T10:45:50.404Z,18.56
2019-05-23T10:46:50.411Z,18.45
2019-05-23T10:47:50.404Z,18.52
2019-05-23T10:48:50.403Z,18.62
2019-05-23T10:49:50.403Z,18.55
2019-05-23T10:50:50.401Z,18.47
2019-05-23T10:51:50.436Z,18.53
2019-05-23T10:52:50.408Z,18.66
2019-05-23T10:53:50.400Z,18.52
2019-05-23T10:54:50.417Z,18.70
2019-05-23T10:55:50.398Z,18.60
2019-05-23T10:56:50.399Z,18.59
2019-05-23T10:57:50.399Z,18.68
2019-05-23T10:58:50.394Z,18.68
2019-05-23T10:59:50.397Z,18.71
2019-05-23T11:00:50.398Z,18.70
2019-05-23T11:01:50.541Z,18.73
2019-05-23T11:02:50.394Z,18.88
2019-05-23T11:03:50.394Z,19.02
2019-05-23T11:04:50.393Z,19.15
2019-05-23T11:05:50.391Z,19.26
2019-05-23T11:06:51.187Z,19.39
2019-05-23T11:07:50.395Z,19.37
2019-05-23T11:08:50.390Z,19.31
2019-05-23T11:09:50.392Z,19.26
2019-05-23T11:10:50.389Z,19.37
2019-05-23T11:11:50.393Z,19.36
2019-05-23T11:12:50.391Z,19.44
2019-05-23T11:13:50.389Z,19.40
2019-05-23T11:14:50.389Z,19.30
2019-05-23T11:15:50.386Z,19.16
2019-05-23T11:16:50.388Z,19.29
2019-05-23T11:17:53.389Z,19.22
2019-05-23T11:18:50.394Z,19.33
2019-05-23T11:19:50.388Z,19.36
2019-05-23T11:20:50.454Z,19.41
2019-05-23T11:21:50.385Z,19.31
2019-05-23T11:22:50.384Z,19.36
2019-05-23T11:23:50.387Z,19.24
2019-05-23T11:24:50.391Z,19.15
2019-05-23T11:25:50.390Z,19.24
2019-05-23T11:26:50.386Z,19.36
2019-05-23T11:27:50.382Z,19.15
2019-05-23T11:28:50.388Z,18.99
2019-05-23T11:29:50.385Z,18.98
2019-05-23T11:30:50.382Z,19.08
2019-05-23T11:31:50.382Z,19.08
2019-05-23T11:32:50.385Z,19.11
2019-05-23T11:33:50.380Z,19.11
2019-05-23T11:34:50.385Z,19.16
2019-05-23T11:35:50.385Z,19.36
2019-05-23T11:36:50.382Z,19.34
2019-05-23T11:37:50.377Z,19.39
2019-05-23T11:38:50.382Z,19.49
2019-05-23T11:39:51.032Z,19.27
2019-05-23T11:40:50.383Z,19.31
2019-05-23T11:41:50.377Z,19.48
2019-05-23T11:42:52.598Z,19.52
2019-05-23T11:43:50.376Z,19.59
2019-05-23T11:44:50.386Z,19.73
2019-05-23T11:45:50.378Z,19.51
2019-05-23T11:46:50.376Z,19.27
2019-05-23T11:47:50.419Z,19.24
2019-05-23T11:48:50.376Z,19.02
2019-05-23T11:49:50.376Z,18.99
2019-05-23T11:50:50.374Z,18.86
2019-05-23T11:51:50.377Z,18.89
2019-05-23T11:52:50.375Z,18.92
2019-05-23T11:54:05.861Z,19.00
2019-05-23T11:54:50.376Z,19.15
2019-05-23T11:55:54.196Z,19.33
2019-05-23T11:56:50.380Z,19.27
2019-05-23T11:57:50.398Z,19.37
2019-05-23T11:58:50.372Z,19.34
2019-05-23T11:59:50.373Z,19.27
2019-05-23T12:00:50.395Z,19.11
2019-05-23T12:01:50.369Z,19.11
2019-05-23T12:02:50.370Z,19.09
2019-05-23T12:03:50.370Z,19.00
2019-05-23T12:04:50.373Z,18.81
2019-05-23T12:05:50.377Z,19.02
2019-05-23T12:06:55.249Z,19.02
2019-05-23T12:07:50.369Z,19.11
2019-05-23T12:08:50.370Z,19.11
2019-05-23T12:09:50.368Z,18.89
2019-05-23T12:10:50.370Z,18.81
2019-05-23T12:11:50.380Z,19.02
2019-05-23T12:12:50.368Z,19.00
2019-05-23T12:13:50.367Z,19.09
2019-05-23T12:14:50.367Z,19.26
2019-05-23T12:15:50.366Z,19.30
2019-05-23T12:16:50.392Z,19.14
2019-05-23T12:17:50.365Z,19.12
2019-05-23T12:18:50.373Z,19.11
2019-05-23T12:19:50.365Z,19.21
2019-05-23T12:20:50.364Z,19.33
2019-05-23T12:21:50.386Z,19.45
2019-05-23T12:22:50.395Z,19.59
2019-05-23T12:23:50.363Z,19.64
2019-05-23T12:24:50.363Z,19.39
2019-05-23T12:25:50.365Z,19.33
2019-05-23T12:26:50.362Z,19.31
2019-05-23T12:27:50.364Z,19.26
2019-05-23T12:28:50.364Z,19.36
2019-05-23T12:29:50.359Z,19.27
2019-05-23T12:30:50.357Z,19.37
2019-05-23T12:31:50.365Z,19.44
2019-05-23T12:32:50.360Z,19.48
2019-05-23T12:33:50.360Z,19.49
2019-05-23T12:35:08.527Z,19.64
2019-05-23T12:35:50.356Z,19.73
2019-05-23T12:36:50.357Z,19.69
2019-05-23T12:37:50.360Z,19.79
2019-05-23T12:38:50.366Z,19.86
2019-05-23T12:39:50.363Z,19.89
2019-05-23T12:40:50.355Z,19.81
2019-05-23T12:41:50.354Z,19.89
2019-05-23T12:42:50.351Z,19.92
2019-05-23T12:43:50.354Z,19.89
2019-05-23T12:44:50.355Z,19.99
2019-05-23T12:45:50.355Z,19.79
2019-05-23T12:46:50.353Z,19.76
2019-05-23T12:47:50.354Z,19.67
2019-05-23T12:48:50.357Z,19.69
2019-05-23T12:49:50.358Z,19.51
2019-05-23T12:50:53.919Z,19.49
2019-05-23T12:51:50.353Z,19.48
2019-05-23T12:52:50.356Z,19.36
2019-05-23T12:53:50.359Z,19.47